Time;durP1;ratioP1;P1;durP2;ratioP2;P2;SDS_P1;SDS_P2;PMS_P1;PMS_P2;Temp;Humidity;BMP_temperature;BMP_pressure;BME280_temperature;BME280_humidity;BME280_pressure;Samples;Min_cycle;Max_cycle;Signal;HPM_P1;HPM_P2
2022/10/15 00:01:18;;;;;;;52.17;32.20;;;8.10;99.90;;;;;;5053151;28;20099;-72
2022/10/15 00:03:46;;;;;;;53.47;34.53;;;8.10;99.90;;;;;;5051427;28;20111;-71
2022/10/15 00:06:17;;;;;;;54.67;34.58;;;8.00;99.90;;;;;;5053318;28;20040;-72
2022/10/15 00:08:45;;;;;;;48.58;29.80;;;8.00;99.90;;;;;;5052984;28;20041;-72
2022/10/15 00:11:15;;;;;;;56.45;33.88;;;8.00;99.90;;;;;;5052860;28;20115;-72
2022/10/15 00:13:43;;;;;;;48.58;33.45;;;8.00;99.90;;;;;;5053043;28;20103;-72
2022/10/15 00:16:15;;;;;;;56.85;32.15;;;7.90;99.90;;;;;;5053215;28;20550;-72
2022/10/15 00:18:43;;;;;;;48.05;28.13;;;8.00;99.90;;;;;;5053256;28;20052;-72
2022/10/15 00:21:14;;;;;;;43.78;28.65;;;8.00;99.90;;;;;;5071239;28;20041;-72
2022/10/15 00:23:41;;;;;;;45.67;30.92;;;8.00;99.90;;;;;;5071808;28;20067;-72
2022/10/15 00:26:11;;;;;;;54.03;34.22;;;8.00;99.90;;;;;;5053689;28;20091;-72
2022/10/15 00:28:38;;;;;;;54.60;34.17;;;8.00;99.90;;;;;;5052687;28;20049;-72
2022/10/15 00:31:07;;;;;;;53.13;32.13;;;7.90;99.90;;;;;;5052683;28;20048;-71
2022/10/15 00:33:37;;;;;;;51.20;34.30;;;7.90;99.90;;;;;;5052080;28;20122;-72
2022/10/15 00:36:08;;;;;;;50.40;33.35;;;7.90;99.90;;;;;;5052915;28;20049;-72
2022/10/15 00:38:36;;;;;;;51.72;31.85;;;7.90;99.90;;;;;;5054217;28;20152;-71
2022/10/15 00:41:06;;;;;;;45.72;31.45;;;7.80;99.90;;;;;;5071226;28;20040;-73
2022/10/15 00:43:41;;;;;;;45.47;31.77;;;7.80;99.90;;;;;;5072469;28;20048;-73
2022/10/15 00:46:17;;;;;;;47.25;31.35;;;7.80;99.90;;;;;;5064045;28;20067;-73
2022/10/15 00:48:50;;;;;;;40.88;26.50;;;7.80;99.90;;;;;;5051585;28;20055;-73
2022/10/15 00:51:19;;;;;;;36.42;23.50;;;7.80;99.90;;;;;;5051369;28;20098;-73
2022/10/15 00:53:48;;;;;;;44.95;25.05;;;7.80;99.90;;;;;;5057495;28;20049;-73
2022/10/15 00:56:17;;;;;;;38.50;26.15;;;7.70;99.90;;;;;;5052493;28;20048;-72
2022/10/15 00:58:45;;;;;;;40.63;26.90;;;7.60;99.90;;;;;;5052306;28;20445;-73
2022/10/15 01:01:13;;;;;;;43.15;26.75;;;7.60;99.90;;;;;;5056252;28;20436;-73
2022/10/15 01:03:41;;;;;;;45.17;27.65;;;7.60;99.90;;;;;;5054718;28;20037;-73
2022/10/15 01:06:10;;;;;;;41.15;26.42;;;7.50;99.90;;;;;;5072082;28;20041;-72
2022/10/15 01:08:37;;;;;;;47.58;28.63;;;7.50;99.90;;;;;;5076340;28;20045;-73
2022/10/15 01:11:22;;;;;;;52.40;32.42;;;7.50;99.90;;;;;;5075150;28;20044;-72
2022/10/15 01:14:00;;;;;;;53.13;32.95;;;7.50;99.90;;;;;;5074413;28;20048;-72
2022/10/15 01:16:34;;;;;;;50.85;33.95;;;7.50;99.90;;;;;;5069854;28;20148;-72
2022/10/15 01:19:06;;;;;;;53.17;33.45;;;7.50;99.90;;;;;;5056297;28;20053;-72
2022/10/15 01:21:42;;;;;;;53.58;34.05;;;7.50;99.90;;;;;;5056005;28;20120;-72
2022/10/15 01:24:43;;;;;;;51.08;32.22;;;7.50;99.90;;;;;;5058030;28;20056;-72
2022/10/15 01:27:22;;;;;;;47.70;29.52;;;7.50;99.90;;;;;;5074898;28;20049;-73
2022/10/15 01:30:20;;;;;;;44.30;29.27;;;7.40;99.90;;;;;;5073855;28;20128;-72
2022/10/15 01:33:03;;;;;;;44.28;28.70;;;7.40;99.90;;;;;;5075691;28;20045;-72
2022/10/15 01:35:38;;;;;;;41.33;27.27;;;7.30;99.90;;;;;;5063182;28;20508;-72
2022/10/15 01:38:09;;;;;;;;;;;7.30;99.90;;;;;;5055509;28;20535;-72
2022/10/15 01:40:44;;;;;;;37.85;25.45;;;7.20;99.90;;;;;;5055897;28;19921;-73
2022/10/15 01:43:15;;;;;;;37.17;25.40;;;7.20;99.90;;;;;;5054942;28;20072;-72
2022/10/15 01:46:16;;;;;;;32.60;22.55;;;7.20;99.90;;;;;;5021531;28;20057;-72
2022/10/15 01:48:56;;;;;;;30.95;22.65;;;7.20;99.90;;;;;;5054570;28;20045;-72
2022/10/15 01:51:25;;;;;;;31.30;23.25;;;7.20;99.90;;;;;;5054351;28;20523;-73
2022/10/15 01:54:00;;;;;;;34.90;23.65;;;7.20;99.90;;;;;;5055507;28;20386;-73
2022/10/15 01:56:28;;;;;;;35.65;22.98;;;7.10;99.90;;;;;;5054265;28;20071;-73
2022/10/15 01:58:58;;;;;;;35.03;22.17;;;7.20;99.90;;;;;;5054407;28;20128;-73
2022/10/15 02:01:26;;;;;;;36.63;21.13;;;7.10;99.90;;;;;;5055363;28;20051;-72
2022/10/15 02:03:54;;;;;;;36.97;21.10;;;7.10;99.90;;;;;;5053782;28;20073;-72
2022/10/15 02:06:25;;;;;;;37.45;22.80;;;7.10;99.90;;;;;;5054287;28;20530;-73
2022/10/15 02:09:03;;;;;;;33.88;22.00;;;7.10;99.90;;;;;;5054253;28;20061;-72
2022/10/15 02:11:39;;;;;;;42.55;24.25;;;7.10;99.90;;;;;;5054075;28;20140;-73
2022/10/15 02:14:13;;;;;;;44.40;27.25;;;7.10;99.90;;;;;;5053784;28;20071;-73
2022/10/15 02:16:47;;;;;;;42.90;26.83;;;7.00;99.90;;;;;;5054825;28;20084;-73
2022/10/15 02:19:21;;;;;;;44.90;27.60;;;6.90;99.90;;;;;;5056916;28;20446;-72
2022/10/15 02:21:58;;;;;;;46.13;28.42;;;6.90;99.90;;;;;;5075186;28;20068;-73
2022/10/15 02:24:28;;;;;;;43.33;25.95;;;6.90;99.90;;;;;;5074469;28;20096;-72
2022/10/15 02:26:59;;;;;;;40.17;25.65;;;6.90;99.90;;;;;;5073565;28;20060;-72
2022/10/15 02:29:31;;;;;;;37.10;23.75;;;6.90;99.90;;;;;;5064665;28;20369;-72
2022/10/15 02:32:01;;;;;;;36.28;23.45;;;6.90;99.90;;;;;;5054936;28;20068;-73
2022/10/15 02:34:32;;;;;;;41.83;23.15;;;6.90;99.90;;;;;;5053388;28;20412;-72
2022/10/15 02:37:03;;;;;;;38.17;23.33;;;7.00;99.90;;;;;;5053582;28;20056;-72
2022/10/15 02:39:30;;;;;;;38.55;23.75;;;6.90;99.90;;;;;;5054854;28;20045;-72
2022/10/15 02:42:00;;;;;;;44.92;26.13;;;6.90;99.90;;;;;;5055680;28;20056;-72
2022/10/15 02:44:27;;;;;;;39.97;25.48;;;6.80;99.90;;;;;;5055538;28;20565;-72
2022/10/15 02:46:55;;;;;;;37.90;24.67;;;6.80;99.90;;;;;;5053272;28;20048;-72
2022/10/15 02:49:24;;;;;;;47.70;24.92;;;6.80;99.90;;;;;;5054666;28;20056;-72
2022/10/15 02:51:52;;;;;;;35.55;24.05;;;6.80;99.90;;;;;;5053513;28;20381;-73
2022/10/15 02:54:19;;;;;;;35.35;21.92;;;6.70;99.90;;;;;;5054309;28;20469;-72
2022/10/15 02:56:48;;;;;;;42.85;23.02;;;6.70;99.90;;;;;;5053055;28;20135;-73
2022/10/15 02:59:18;;;;;;;31.35;20.38;;;6.70;99.90;;;;;;5070956;28;20037;-73
2022/10/15 03:01:46;;;;;;;26.48;18.33;;;6.70;99.90;;;;;;5073053;28;20049;-72
2022/10/15 03:04:15;;;;;;;35.75;18.55;;;6.70;99.90;;;;;;5071672;28;20068;-72
2022/10/15 03:06:44;;;;;;;35.00;20.23;;;6.70;99.90;;;;;;5033341;28;20049;-73
2022/10/15 03:09:12;;;;;;;38.10;21.73;;;6.70;99.90;;;;;;5066997;28;20045;-72
2022/10/15 03:11:40;;;;;;;35.03;20.80;;;6.70;99.90;;;;;;5053308;28;20045;-72
2022/10/15 03:14:07;;;;;;;38.55;21.88;;;6.70;99.90;;;;;;5054106;28;20060;-72
2022/10/15 03:16:35;;;;;;;35.53;22.83;;;6.70;99.90;;;;;;5053951;28;20156;-72
2022/10/15 03:19:02;;;;;;;37.78;23.02;;;6.70;99.90;;;;;;5059807;28;20053;-72
2022/10/15 03:21:30;;;;;;;35.55;23.45;;;6.60;99.90;;;;;;5052251;28;20121;-72
2022/10/15 03:24:06;;;;;;;39.70;24.20;;;6.60;99.90;;;;;;5053371;28;20380;-72
2022/10/15 03:26:33;;;;;;;42.65;27.55;;;6.60;99.90;;;;;;5053816;28;20040;-71
2022/10/15 03:29:01;;;;;;;41.75;27.65;;;6.60;99.90;;;;;;5053178;28;20045;-72
2022/10/15 03:31:52;;;;;;;47.40;29.08;;;6.60;99.90;;;;;;5065008;28;20045;-72
2022/10/15 03:34:21;;;;;;;43.55;26.73;;;6.60;99.90;;;;;;5071062;28;20510;-72
2022/10/15 03:36:49;;;;;;;40.28;25.40;;;6.50;99.90;;;;;;5052646;28;20059;-72
2022/10/15 03:39:18;;;;;;;39.78;25.08;;;6.50;99.90;;;;;;5052768;28;20144;-72
2022/10/15 03:41:45;;;;;;;39.55;25.08;;;6.50;99.90;;;;;;5052136;28;20040;-72
2022/10/15 03:44:20;;;;;;;40.47;23.70;;;6.50;99.90;;;;;;5051905;28;20045;-73
2022/10/15 03:46:59;;;;;;;32.67;21.40;;;6.60;99.90;;;;;;5052452;28;20056;-72
2022/10/15 03:49:33;;;;;;;34.00;21.65;;;6.50;99.90;;;;;;5053250;28;20049;-72
2022/10/15 03:52:02;;;;;;;36.17;20.35;;;6.50;99.90;;;;;;5053518;28;20404;-72
2022/10/15 03:54:31;;;;;;;33.45;20.48;;;6.40;99.90;;;;;;5051663;28;20049;-72
2022/10/15 03:56:59;;;;;;;32.05;20.20;;;6.50;99.90;;;;;;5058072;28;20048;-72
2022/10/15 03:59:31;;;;;;;41.28;22.83;;;6.40;99.90;;;;;;5061035;28;20045;-72
2022/10/15 04:02:02;;;;;;;37.08;23.67;;;6.40;99.90;;;;;;5052873;28;20053;-72
2022/10/15 04:04:31;;;;;;;33.30;22.52;;;6.50;99.90;;;;;;5054106;28;20037;-68
2022/10/15 04:07:00;;;;;;;34.80;21.90;;;6.40;99.90;;;;;;5072031;28;20052;-70
2022/10/15 04:09:31;;;;;;;40.28;23.83;;;6.40;99.90;;;;;;5070522;28;20423;-72
2022/10/15 04:12:18;;;;;;;37.75;24.33;;;6.40;99.90;;;;;;5073279;28;20098;-70
2022/10/15 04:14:46;;;;;;;43.63;25.80;;;6.30;99.90;;;;;;5071484;28;20468;-70
2022/10/15 04:17:14;;;;;;;41.40;26.92;;;6.30;99.90;;;;;;5059618;28;20045;-71
2022/10/15 04:19:41;;;;;;;38.53;24.15;;;6.20;99.90;;;;;;5051582;28;20143;-70
2022/10/15 04:22:08;;;;;;;34.75;22.65;;;6.20;99.90;;;;;;5052718;28;20132;-70
2022/10/15 04:24:44;;;;;;;31.85;20.63;;;6.30;99.90;;;;;;5051557;28;20103;-70
2022/10/15 04:27:15;;;;;;;29.02;20.27;;;6.20;99.90;;;;;;5051680;28;20048;-70
2022/10/15 04:29:43;;;;;;;31.13;19.60;;;6.20;99.90;;;;;;5051147;28;20540;-71
2022/10/15 04:32:15;;;;;;;28.67;18.00;;;6.20;99.90;;;;;;5052758;28;20135;-70
2022/10/15 04:34:44;;;;;;;26.67;18.63;;;6.20;99.90;;;;;;5055193;28;20053;-70
2022/10/15 04:37:12;;;;;;;33.08;18.98;;;6.30;99.90;;;;;;5055239;28;20063;-70
2022/10/15 04:39:40;;;;;;;29.15;19.10;;;6.20;99.90;;;;;;5055601;28;20049;-70
2022/10/15 04:42:13;;;;;;;32.65;20.23;;;6.10;99.90;;;;;;5062272;28;20039;-71
2022/10/15 04:44:41;;;;;;;32.78;21.55;;;6.10;99.90;;;;;;5062740;28;20049;-70
2022/10/15 04:47:09;;;;;;;38.20;21.42;;;6.10;99.90;;;;;;5060317;28;20076;-71
2022/10/15 04:49:42;;;;;;;34.22;22.35;;;6.10;99.90;;;;;;5058074;28;20063;-70
2022/10/15 04:52:26;;;;;;;42.75;25.23;;;6.10;99.90;;;;;;5060468;28;20041;-71
2022/10/15 04:54:57;;;;;;;40.58;24.55;;;6.10;99.90;;;;;;5072411;28;20040;-71
2022/10/15 04:57:26;;;;;;;40.38;23.90;;;6.00;99.90;;;;;;5067332;28;20045;-71
2022/10/15 04:59:54;;;;;;;43.20;23.63;;;6.00;99.90;;;;;;5064061;28;20044;-69
2022/10/15 05:02:34;;;;;;;38.88;20.67;;;6.00;99.90;;;;;;5064189;28;20056;-71
2022/10/15 05:05:20;;;;;;;33.00;20.45;;;6.00;99.90;;;;;;5069907;28;20118;-71
2022/10/15 05:08:00;;;;;;;37.08;20.80;;;6.00;99.90;;;;;;5066020;28;20045;-70
2022/10/15 05:10:29;;;;;;;36.22;20.20;;;6.10;99.90;;;;;;5062852;28;20114;-70
2022/10/15 05:12:59;;;;;;;36.78;20.70;;;6.20;99.90;;;;;;5057633;28;20136;-71
2022/10/15 05:15:31;;;;;;;35.47;18.40;;;6.20;99.90;;;;;;5056268;28;20057;-71
2022/10/15 05:17:59;;;;;;;35.00;20.52;;;6.10;99.90;;;;;;5060129;28;20500;-70
2022/10/15 05:20:35;;;;;;;42.42;23.25;;;6.10;99.90;;;;;;5036368;28;20045;-70
2022/10/15 05:23:05;;;;;;;37.65;22.23;;;6.10;99.90;;;;;;5061596;28;20048;-69
2022/10/15 05:25:35;;;;;;;38.42;22.80;;;6.10;99.90;;;;;;5056374;28;20051;-69
2022/10/15 05:28:04;;;;;;;34.50;22.33;;;6.00;99.90;;;;;;5055085;28;20055;-70
2022/10/15 05:30:33;;;;;;;35.58;21.65;;;6.10;99.90;;;;;;5054615;28;20073;-69
2022/10/15 05:33:02;;;;;;;34.42;20.10;;;6.20;99.90;;;;;;5054372;28;20076;-68
2022/10/15 05:35:30;;;;;;;30.27;19.17;;;6.20;99.90;;;;;;5055028;28;20463;-70
2022/10/15 05:38:03;;;;;;;40.25;21.38;;;6.30;99.90;;;;;;5054806;28;20110;-70
2022/10/15 05:40:30;;;;;;;36.97;21.70;;;6.30;99.90;;;;;;5055148;28;20049;-71
2022/10/15 05:43:07;;;;;;;38.40;20.63;;;6.30;99.90;;;;;;5057753;28;20044;-70
2022/10/15 05:45:34;;;;;;;34.05;21.17;;;6.40;99.90;;;;;;5071296;28;20481;-70
2022/10/15 05:48:05;;;;;;;37.65;21.58;;;6.40;99.90;;;;;;5055090;28;20049;-70
2022/10/15 05:50:33;;;;;;;40.85;21.60;;;6.40;99.90;;;;;;5054804;28;20049;-70
2022/10/15 05:53:02;;;;;;;34.55;18.60;;;6.50;99.90;;;;;;5055683;28;20504;-71
2022/10/15 05:55:38;;;;;;;;;;;6.60;99.90;;;;;;5055526;28;20047;-70
2022/10/15 05:58:07;;;;;;;29.17;19.67;;;6.70;99.90;;;;;;5071206;28;19928;-69
2022/10/15 06:00:35;;;;;;;32.80;19.85;;;6.80;99.90;;;;;;5075041;28;20079;-70
2022/10/15 06:03:03;;;;;;;42.10;22.60;;;6.90;99.90;;;;;;5074356;28;20048;-71
2022/10/15 06:05:32;;;;;;;37.28;23.08;;;7.00;99.90;;;;;;5063400;28;20037;-72
2022/10/15 06:07:59;;;;;;;33.78;22.08;;;7.10;99.90;;;;;;5054391;28;20060;-69
2022/10/15 06:10:28;;;;;;;41.10;25.63;;;7.20;99.90;;;;;;5053598;28;20068;-69
2022/10/15 06:12:55;;;;;;;35.70;23.92;;;7.30;99.90;;;;;;5061873;28;20523;-69
2022/10/15 06:15:24;;;;;;;41.22;23.90;;;7.30;99.90;;;;;;5056524;28;20099;-69
2022/10/15 06:17:54;;;;;;;39.13;25.60;;;7.50;99.90;;;;;;5054512;28;20087;-70
2022/10/15 06:20:22;;;;;;;39.25;25.33;;;7.70;99.90;;;;;;5053056;28;20148;-70
2022/10/15 06:22:49;;;;;;;38.10;25.67;;;8.00;99.90;;;;;;5053850;28;20045;-70
2022/10/15 06:25:17;;;;;;;33.25;22.65;;;8.20;99.90;;;;;;5052788;28;20048;-70
2022/10/15 06:27:44;;;;;;;35.47;22.50;;;8.40;99.90;;;;;;5054061;28;20110;-69
2022/10/15 06:30:11;;;;;;;40.10;23.45;;;8.60;99.90;;;;;;5057858;28;20520;-70
2022/10/15 06:32:40;;;;;;;32.80;22.25;;;8.80;99.90;;;;;;5058224;28;20480;-70
2022/10/15 06:35:08;;;;;;;36.67;21.02;;;8.90;99.90;;;;;;5052736;28;20400;-71
2022/10/15 06:37:35;;;;;;;35.85;21.95;;;9.00;99.90;;;;;;5045615;28;20144;-71
2022/10/15 06:40:02;;;;;;;36.13;22.50;;;9.20;99.90;;;;;;5050537;28;20049;-70
2022/10/15 06:42:29;;;;;;;40.75;22.52;;;9.40;99.90;;;;;;5061025;28;20550;-71
2022/10/15 06:44:57;;;;;;;35.75;22.02;;;9.60;99.90;;;;;;5054926;28;20476;-70
2022/10/15 06:47:24;;;;;;;33.17;22.20;;;9.90;99.90;;;;;;5054183;28;20041;-70
2022/10/15 06:49:53;;;;;;;35.05;22.40;;;10.00;99.90;;;;;;5054485;28;20116;-70
2022/10/15 06:52:20;;;;;;;38.13;22.23;;;10.10;99.90;;;;;;5060627;28;20144;-70
2022/10/15 06:54:47;;;;;;;33.00;23.08;;;10.20;99.90;;;;;;5068794;28;20555;-70
2022/10/15 06:57:15;;;;;;;31.10;18.83;;;10.40;99.90;;;;;;5064221;28;20033;-70
2022/10/15 06:59:42;;;;;;;25.25;15.77;;;10.50;99.90;;;;;;5058402;28;20128;-70
2022/10/15 07:02:10;;;;;;;24.77;15.13;;;10.80;99.90;;;;;;5060962;28;20729;-72
2022/10/15 07:04:38;;;;;;;21.48;14.88;;;10.80;99.90;;;;;;5064477;28;20048;-70
2022/10/15 07:07:07;;;;;;;23.45;15.63;;;10.90;99.90;;;;;;5054618;28;20037;-69
2022/10/15 07:09:35;;;;;;;43.17;29.02;;;11.10;99.90;;;;;;5055223;28;20134;-70
2022/10/15 07:12:03;;;;;;;30.10;16.05;;;11.10;99.90;;;;;;5053923;28;20124;-70
2022/10/15 07:14:30;;;;;;;27.98;15.93;;;11.30;99.90;;;;;;5042595;28;20069;-69
2022/10/15 07:16:58;;;;;;;25.58;15.48;;;11.60;99.90;;;;;;5044068;28;20091;-70
2022/10/15 07:19:27;;;;;;;39.85;17.65;;;11.80;99.90;;;;;;5052794;28;20045;-70
2022/10/15 07:21:54;;;;;;;24.92;16.00;;;12.00;99.90;;;;;;5054128;28;20076;-71
2022/10/15 07:24:23;;;;;;;28.20;15.77;;;12.00;99.90;;;;;;5052072;28;20075;-70
2022/10/15 07:26:50;;;;;;;25.48;16.40;;;12.00;99.90;;;;;;5052902;28;20488;-69
2022/10/15 07:29:18;;;;;;;25.90;17.45;;;12.20;99.90;;;;;;5055338;28;20040;-69
2022/10/15 07:31:46;;;;;;;30.10;19.08;;;12.50;99.90;;;;;;5040431;28;20041;-70
2022/10/15 07:34:16;;;;;;;30.08;19.20;;;12.70;99.90;;;;;;5056394;28;20547;-71
2022/10/15 07:36:44;;;;;;;39.88;23.58;;;12.90;99.90;;;;;;5045381;28;20068;-71
2022/10/15 07:39:11;;;;;;;33.55;20.92;;;13.20;99.90;;;;;;5068530;28;20147;-71
2022/10/15 07:41:41;;;;;;;33.15;21.15;;;13.50;99.90;;;;;;5038897;28;20041;-70
2022/10/15 07:44:08;;;;;;;31.83;20.05;;;13.60;99.90;;;;;;5041381;28;20040;-69
2022/10/15 07:46:35;;;;;;;33.15;21.52;;;13.80;99.90;;;;;;5044606;28;20098;-72
2022/10/15 07:49:03;;;;;;;45.17;24.45;;;14.00;99.90;;;;;;5053349;28;20041;-70
2022/10/15 07:51:30;;;;;;;43.47;28.02;;;14.20;99.90;;;;;;5053863;28;20045;-71
2022/10/15 07:53:57;;;;;;;35.35;23.17;;;14.30;99.90;;;;;;5050641;28;20038;-71
2022/10/15 07:56:25;;;;;;;34.25;22.00;;;14.40;99.90;;;;;;5061703;28;20728;-70
2022/10/15 07:58:53;;;;;;;31.98;21.45;;;14.50;99.90;;;;;;5052666;28;20064;-71
2022/10/15 08:01:22;;;;;;;34.10;20.63;;;14.50;99.90;;;;;;5053197;28;20049;-70
2022/10/15 08:03:49;;;;;;;29.15;18.98;;;14.60;99.90;;;;;;5050826;28;20053;-69
2022/10/15 08:06:17;;;;;;;32.00;17.88;;;14.90;99.90;;;;;;5052809;28;20045;-70
2022/10/15 08:08:46;;;;;;;24.92;17.48;;;15.00;99.90;;;;;;5052612;28;20458;-69
2022/10/15 08:11:16;;;;;;;29.77;17.38;;;15.10;99.90;;;;;;5051796;28;20087;-70
2022/10/15 08:13:45;;;;;;;31.02;17.80;;;15.20;99.90;;;;;;5058285;28;20128;-70
2022/10/15 08:16:19;;;;;;;33.55;16.98;;;15.20;99.90;;;;;;5069400;28;20127;-70
2022/10/15 08:18:55;;;;;;;24.65;16.42;;;15.30;99.90;;;;;;5046850;28;20053;-71
2022/10/15 08:21:22;;;;;;;24.00;15.50;;;15.30;99.90;;;;;;5053207;28;20102;-71
2022/10/15 08:23:50;;;;;;;25.95;16.95;;;15.40;99.90;;;;;;5051621;28;20069;-70
2022/10/15 08:26:17;;;;;;;21.27;14.98;;;15.50;99.90;;;;;;5054218;28;20445;-69
2022/10/15 08:28:44;;;;;;;24.13;15.70;;;15.60;99.90;;;;;;5069799;28;20043;-69
2022/10/15 08:31:12;;;;;;;22.58;16.58;;;15.70;99.90;;;;;;5052013;28;20400;-71
2022/10/15 08:33:41;;;;;;;24.52;17.17;;;15.80;99.90;;;;;;5055469;28;20083;-71
2022/10/15 08:36:09;;;;;;;27.92;16.50;;;16.00;99.90;;;;;;5055202;28;20063;-70
2022/10/15 08:38:36;;;;;;;23.52;15.43;;;16.10;99.90;;;;;;5050225;28;20087;-70
2022/10/15 08:41:14;;;;;;;31.70;15.88;;;16.20;99.90;;;;;;5053599;28;20095;-70
2022/10/15 08:43:43;;;;;;;23.98;15.77;;;16.40;99.90;;;;;;5051534;28;20453;-70
2022/10/15 08:46:21;;;;;;;22.97;14.60;;;16.50;99.90;;;;;;5055107;28;20475;-70
2022/10/15 08:48:53;;;;;;;23.98;15.55;;;16.70;99.90;;;;;;5052730;28;20036;-70
2022/10/15 08:51:22;;;;;;;22.77;15.07;;;16.80;99.90;;;;;;5051392;28;20035;-70
2022/10/15 08:53:53;;;;;;;27.90;13.65;;;16.90;99.90;;;;;;5052176;28;20033;-71
2022/10/15 08:56:24;;;;;;;24.10;12.20;;;16.90;99.90;;;;;;5051115;28;20049;-71
2022/10/15 08:58:58;;;;;;;28.67;14.40;;;17.00;99.90;;;;;;5052585;28;20148;-70
2022/10/15 09:01:32;;;;;;;14.15;9.15;;;17.20;99.90;;;;;;5052324;28;20095;-70
2022/10/15 09:04:14;;;;;;;16.02;8.00;;;17.30;99.90;;;;;;5052029;28;20474;-69
2022/10/15 09:06:42;;;;;;;15.88;7.40;;;17.30;99.90;;;;;;5050556;28;20084;-71
2022/10/15 09:09:22;;;;;;;14.60;7.57;;;17.40;99.90;;;;;;5053296;28;20068;-70
2022/10/15 09:11:59;;;;;;;11.80;8.75;;;17.50;99.90;;;;;;5052323;28;20497;-69
2022/10/15 09:14:34;;;;;;;11.00;7.88;;;17.60;99.90;;;;;;5051907;28;20049;-70
2022/10/15 09:17:07;;;;;;;13.70;6.40;;;17.60;99.90;;;;;;5051781;28;20408;-70
2022/10/15 09:19:37;;;;;;;9.65;6.88;;;17.60;99.90;;;;;;5044465;28;20068;-69
2022/10/15 09:22:14;;;;;;;11.50;9.00;;;17.70;99.90;;;;;;5055669;28;20056;-69
2022/10/15 09:24:48;;;;;;;10.32;6.00;;;17.90;99.90;;;;;;5054427;28;20053;-69
2022/10/15 09:27:27;;;;;;;12.05;7.50;;;17.90;99.90;;;;;;5055675;28;20118;-70
2022/10/15 09:30:02;;;;;;;15.32;8.27;;;18.00;99.90;;;;;;5055453;28;20087;-70
2022/10/15 09:32:35;;;;;;;9.98;6.28;;;18.20;99.90;;;;;;5055393;28;20115;-70
2022/10/15 09:35:15;;;;;;;13.75;6.93;;;18.20;99.90;;;;;;5055425;28;20076;-68
2022/10/15 09:37:51;;;;;;;10.82;6.13;;;18.30;99.90;;;;;;5054340;28;20048;-69
2022/10/15 09:40:39;;;;;;;9.05;5.50;;;18.40;99.90;;;;;;5055206;28;20135;-72
2022/10/15 09:43:07;;;;;;;9.73;5.60;;;18.40;99.90;;;;;;5055217;28;20057;-72
2022/10/15 09:45:34;;;;;;;14.15;6.97;;;18.40;99.90;;;;;;5053804;28;20049;-73
2022/10/15 09:48:02;;;;;;;10.55;5.95;;;18.40;99.90;;;;;;5053818;28;20516;-72
2022/10/15 09:50:40;;;;;;;18.92;14.05;;;18.50;99.90;;;;;;5055177;28;20083;-72
2022/10/15 09:53:18;;;;;;;9.15;6.32;;;18.60;99.90;;;;;;5053503;28;20515;-72
2022/10/15 09:55:49;;;;;;;12.77;6.10;;;18.60;99.90;;;;;;5055116;28;20041;-73
2022/10/15 09:58:20;;;;;;;10.07;6.40;;;18.60;99.90;;;;;;5055178;28;20075;-72
2022/10/15 10:00:56;;;;;;;19.85;9.13;;;18.70;99.90;;;;;;5055016;28;20049;-73
2022/10/15 10:03:26;;;;;;;9.00;5.65;;;18.80;99.90;;;;;;5054809;28;20084;-73
2022/10/15 10:06:02;;;;;;;12.75;7.55;;;18.80;99.90;;;;;;5054843;28;20567;-73
2022/10/15 10:08:38;;;;;;;12.38;5.40;;;18.90;99.90;;;;;;5055010;28;20415;-73
2022/10/15 10:11:08;;;;;;;8.00;4.90;;;18.90;99.90;;;;;;5055013;28;20087;-73
2022/10/15 10:13:42;;;;;;;7.93;4.75;;;19.10;99.90;;;;;;5054855;28;20064;-69
2022/10/15 10:16:11;;;;;;;10.38;5.95;;;19.10;99.90;;;;;;5054577;28;20069;-70
2022/10/15 10:18:39;;;;;;;10.05;5.18;;;19.20;99.90;;;;;;5054802;28;20072;-73
2022/10/15 10:21:23;;;;;;;12.15;4.60;;;19.30;99.90;;;;;;5054736;28;20048;-74
2022/10/15 10:23:50;;;;;;;6.15;4.20;;;19.30;99.90;;;;;;5053141;28;20055;-73
2022/10/15 10:26:18;;;;;;;7.53;4.72;;;19.10;99.90;;;;;;5054836;28;20134;-73
2022/10/15 10:28:50;;;;;;;9.10;4.78;;;19.20;99.90;;;;;;5054591;28;20119;-73
2022/10/15 10:31:18;;;;;;;9.50;5.78;;;19.20;99.90;;;;;;5054393;28;20041;-73
2022/10/15 10:33:47;;;;;;;9.70;5.28;;;19.30;99.90;;;;;;5053288;28;20128;-73
2022/10/15 10:36:27;;;;;;;7.90;4.50;;;19.40;99.90;;;;;;5054320;28;20126;-72
2022/10/15 10:39:01;;;;;;;5.68;3.95;;;19.40;99.90;;;;;;5055392;28;20118;-73
2022/10/15 10:41:50;;;;;;;5.35;3.92;;;19.50;99.90;;;;;;5054487;28;20068;-72
2022/10/15 10:44:26;;;;;;;6.22;4.03;;;19.50;99.90;;;;;;5054636;28;20048;-72
2022/10/15 10:47:09;;;;;;;7.70;4.32;;;19.60;99.90;;;;;;5054201;28;20068;-73
2022/10/15 10:49:38;;;;;;;11.98;6.10;;;19.50;99.90;;;;;;5054649;28;20069;-73
2022/10/15 10:52:19;;;;;;;10.63;4.72;;;19.50;99.90;;;;;;5054471;28;20120;-72
2022/10/15 10:54:48;;;;;;;7.20;4.55;;;19.60;99.90;;;;;;5054422;28;20040;-73
2022/10/15 10:57:22;;;;;;;8.18;5.53;;;19.60;99.90;;;;;;5054737;28;20045;-72
2022/10/15 10:59:52;;;;;;;10.52;6.32;;;19.60;99.90;;;;;;5054463;28;20408;-73
2022/10/15 11:02:20;;;;;;;9.23;5.05;;;19.70;99.90;;;;;;5054778;28;20041;-73
2022/10/15 11:04:48;;;;;;;9.35;5.88;;;19.70;99.90;;;;;;5054103;28;20041;-72
2022/10/15 11:07:23;;;;;;;12.23;4.75;;;19.80;99.90;;;;;;5054740;28;20037;-72
2022/10/15 11:10:00;;;;;;;9.30;5.05;;;19.90;99.90;;;;;;5054634;28;20048;-72
2022/10/15 11:12:46;;;;;;;8.63;5.07;;;19.90;99.90;;;;;;5054041;28;20112;-73
2022/10/15 11:15:25;;;;;;;8.30;4.93;;;19.90;99.90;;;;;;5053688;28;20131;-73
2022/10/15 11:18:07;;;;;;;8.77;3.95;;;20.00;99.90;;;;;;5054566;28;20282;-72
2022/10/15 11:20:47;;;;;;;10.00;4.72;;;20.00;99.90;;;;;;5037423;28;20080;-73
2022/10/15 11:23:30;;;;;;;7.18;4.03;;;20.00;99.90;;;;;;5034529;28;20107;-72
2022/10/15 11:26:04;;;;;;;5.78;3.15;;;20.00;99.90;;;;;;5034728;28;20045;-73
2022/10/15 11:28:48;;;;;;;5.78;3.67;;;20.00;99.90;;;;;;5034612;28;20133;-73
2022/10/15 11:31:24;;;;;;;6.70;3.58;;;20.00;99.90;;;;;;5036131;28;20072;-73
2022/10/15 11:33:56;;;;;;;;;;;20.10;99.90;;;;;;5034801;28;20038;-73
2022/10/15 11:36:49;;;;;;;6.97;3.80;;;20.10;99.90;;;;;;5051079;28;19920;-74
2022/10/15 11:39:41;;;;;;;7.93;4.00;;;20.10;99.90;;;;;;5054615;28;20084;-72
2022/10/15 11:42:17;;;;;;;5.40;3.75;;;20.30;99.90;;;;;;5053858;28;20079;-73
2022/10/15 11:44:56;;;;;;;;;;;20.30;99.90;;;;;;5054543;28;20095;-73
2022/10/15 11:47:35;;;;;;;8.20;4.60;;;20.30;99.90;;;;;;5034542;28;19968;-73
2022/10/15 11:50:16;;;;;;;8.85;5.22;;;20.30;99.90;;;;;;5033401;28;20477;-73
2022/10/15 11:53:00;;;;;;;7.57;4.97;;;20.40;99.90;;;;;;5036698;28;20069;-74
2022/10/15 11:55:37;;;;;;;5.30;3.55;;;20.30;99.90;;;;;;5053054;28;20120;-73
2022/10/15 11:58:15;;;;;;;5.97;3.60;;;20.40;99.90;;;;;;5053207;28;20539;-74
2022/10/15 12:00:47;;;;;;;6.07;4.47;;;20.30;99.90;;;;;;5053451;28;20063;-73
2022/10/15 12:03:17;;;;;;;5.40;3.70;;;20.30;99.90;;;;;;5054310;28;20112;-73
2022/10/15 12:05:50;;;;;;;8.25;4.88;;;20.30;99.90;;;;;;5054055;28;20060;-73
2022/10/15 12:08:19;;;;;;;9.18;4.80;;;20.30;99.90;;;;;;5054168;28;20198;-74
2022/10/15 12:11:07;;;;;;;10.55;5.00;;;20.40;99.90;;;;;;5053018;28;20037;-73
2022/10/15 12:13:40;;;;;;;7.78;4.03;;;20.50;99.90;;;;;;5052761;28;20079;-73
2022/10/15 12:16:19;;;;;;;10.13;4.68;;;20.50;99.90;;;;;;5051394;28;20072;-73
2022/10/15 12:18:53;;;;;;;7.32;4.68;;;20.50;99.90;;;;;;5053224;28;20118;-73
2022/10/15 12:21:45;;;;;;;7.00;4.15;;;20.50;99.90;;;;;;5052986;28;20068;-72
2022/10/15 12:24:52;;;;;;;8.52;4.07;;;20.60;99.90;;;;;;5033388;28;20055;-72
2022/10/15 12:27:23;;;;;;;;;;;20.70;99.90;;;;;;5044691;28;20076;-72
2022/10/15 12:29:53;;;;;;;11.13;4.85;;;20.70;99.90;;;;;;5053149;28;19952;-72
2022/10/15 12:32:24;;;;;;;8.88;6.10;;;20.70;99.90;;;;;;5052871;28;20497;-74
2022/10/15 12:34:56;;;;;;;9.95;5.30;;;20.70;99.90;;;;;;5052686;28;20037;-73
2022/10/15 12:37:26;;;;;;;6.43;4.60;;;20.70;99.90;;;;;;5052867;28;20103;-74
2022/10/15 12:40:00;;;;;;;6.95;4.10;;;20.80;99.90;;;;;;5052699;28;20500;-73
2022/10/15 12:42:32;;;;;;;8.23;4.20;;;20.80;99.90;;;;;;5052815;28;20041;-72
2022/10/15 12:45:02;;;;;;;13.63;6.68;;;20.70;99.90;;;;;;5053236;28;20041;-73
2022/10/15 12:47:49;;;;;;;9.48;4.82;;;20.80;99.90;;;;;;5052467;28;20465;-72
2022/10/15 12:50:21;;;;;;;11.00;4.25;;;20.70;99.90;;;;;;5052740;28;20079;-73
2022/10/15 12:53:00;;;;;;;7.35;4.40;;;20.70;99.90;;;;;;5052234;28;20128;-72
2022/10/15 12:55:38;;;;;;;6.85;4.30;;;20.70;99.90;;;;;;5056149;28;20159;-72
2022/10/15 12:58:35;;;;;;;10.32;7.53;;;20.70;99.90;;;;;;5054995;28;20554;-73
2022/10/15 13:01:07;;;;;;;10.88;6.50;;;20.80;99.90;;;;;;5056547;28;20102;-74
2022/10/15 13:03:37;;;;;;;10.40;6.38;;;20.80;99.90;;;;;;5056362;28;20063;-73